sensor_id;sensor_type;location;lat;lon;timestamp;P1;durP1;ratioP1;P2;durP2;ratioP2
8777;SDS011;4425;50.872;4.712;2022-12-29T00:01:42;2.13;;;1.70;;
8777;SDS011;4425;50.872;4.712;2022-12-29T00:04:09;1.70;;;1.60;;
8777;SDS011;4425;50.872;4.712;2022-12-29T00:06:39;1.60;;;1.50;;
8777;SDS011;4425;50.872;4.712;2022-12-29T00:09:06;1.60;;;1.50;;
8777;SDS011;4425;50.872;4.712;2022-12-29T00:11:33;1.73;;;1.40;;
8777;SDS011;4425;50.872;4.712;2022-12-29T00:14:02;1.37;;;1.37;;
8777;SDS011;4425;50.872;4.712;2022-12-29T00:16:46;3.27;;;1.60;;
8777;SDS011;4425;50.872;4.712;2022-12-29T00:19:13;1.63;;;1.53;;
8777;SDS011;4425;50.872;4.712;2022-12-29T00:21:54;1.60;;;1.50;;
8777;SDS011;4425;50.872;4.712;2022-12-29T00:24:40;1.73;;;1.60;;
8777;SDS011;4425;50.872;4.712;2022-12-29T00:27:25;1.67;;;1.37;;
8777;SDS011;4425;50.872;4.712;2022-12-29T00:30:12;1.13;;;1.13;;
8777;SDS011;4425;50.872;4.712;2022-12-29T00:32:58;1.33;;;1.33;;
8777;SDS011;4425;50.872;4.712;2022-12-29T00:35:44;3.60;;;1.50;;
8777;SDS011;4425;50.872;4.712;2022-12-29T00:38:17;1.47;;;1.30;;
8777;SDS011;4425;50.872;4.712;2022-12-29T00:41:01;1.10;;;1.10;;
8777;SDS011;4425;50.872;4.712;2022-12-29T00:43:46;1.30;;;1.20;;
8777;SDS011;4425;50.872;4.712;2022-12-29T00:46:33;1.63;;;1.30;;
8777;SDS011;4425;50.872;4.712;2022-12-29T00:49:01;1.90;;;1.30;;
8777;SDS011;4425;50.872;4.712;2022-12-29T00:51:46;1.43;;;1.40;;
8777;SDS011;4425;50.872;4.712;2022-12-29T00:54:14;3.23;;;1.50;;
8777;SDS011;4425;50.872;4.712;2022-12-29T00:56:42;3.20;;;1.53;;
8777;SDS011;4425;50.872;4.712;2022-12-29T00:59:09;1.60;;;1.33;;
8777;SDS011;4425;50.872;4.712;2022-12-29T01:01:39;1.53;;;1.40;;
8777;SDS011;4425;50.872;4.712;2022-12-29T01:04:06;2.37;;;1.40;;
8777;SDS011;4425;50.872;4.712;2022-12-29T01:06:35;3.03;;;1.33;;
8777;SDS011;4425;50.872;4.712;2022-12-29T01:09:04;1.83;;;1.37;;
8777;SDS011;4425;50.872;4.712;2022-12-29T01:11:52;2.53;;;1.60;;
8777;SDS011;4425;50.872;4.712;2022-12-29T01:14:19;3.47;;;1.60;;
8777;SDS011;4425;50.872;4.712;2022-12-29T01:16:50;2.50;;;1.50;;
8777;SDS011;4425;50.872;4.712;2022-12-29T01:19:17;3.37;;;1.50;;
8777;SDS011;4425;50.872;4.712;2022-12-29T01:21:45;2.87;;;1.40;;
8777;SDS011;4425;50.872;4.712;2022-12-29T01:24:12;3.17;;;1.77;;
8777;SDS011;4425;50.872;4.712;2022-12-29T01:26:40;2.50;;;1.47;;
8777;SDS011;4425;50.872;4.712;2022-12-29T01:29:07;2.87;;;1.70;;
8777;SDS011;4425;50.872;4.712;2022-12-29T01:31:34;4.77;;;1.70;;
8777;SDS011;4425;50.872;4.712;2022-12-29T01:34:03;1.67;;;1.40;;
8777;SDS011;4425;50.872;4.712;2022-12-29T01:36:31;2.00;;;1.70;;
8777;SDS011;4425;50.872;4.712;2022-12-29T01:38:59;1.33;;;1.33;;
8777;SDS011;4425;50.872;4.712;2022-12-29T01:41:26;2.20;;;1.50;;
8777;SDS011;4425;50.872;4.712;2022-12-29T01:43:54;1.70;;;1.57;;
8777;SDS011;4425;50.872;4.712;2022-12-29T01:46:26;2.53;;;1.80;;
8777;SDS011;4425;50.872;4.712;2022-12-29T01:48:59;2.47;;;1.43;;
8777;SDS011;4425;50.872;4.712;2022-12-29T01:51:37;2.30;;;1.50;;
8777;SDS011;4425;50.872;4.712;2022-12-29T01:54:08;2.33;;;1.77;;
8777;SDS011;4425;50.872;4.712;2022-12-29T01:56:38;1.73;;;1.57;;
8777;SDS011;4425;50.872;4.712;2022-12-29T01:59:05;2.80;;;1.97;;
8777;SDS011;4425;50.872;4.712;2022-12-29T02:01:36;1.77;;;1.67;;
8777;SDS011;4425;50.872;4.712;2022-12-29T02:04:05;2.70;;;1.73;;
8777;SDS011;4425;50.872;4.712;2022-12-29T02:06:35;3.83;;;1.70;;
8777;SDS011;4425;50.872;4.712;2022-12-29T02:09:07;3.57;;;1.90;;
8777;SDS011;4425;50.872;4.712;2022-12-29T02:11:34;3.60;;;1.73;;
8777;SDS011;4425;50.872;4.712;2022-12-29T02:14:05;2.93;;;1.73;;
8777;SDS011;4425;50.872;4.712;2022-12-29T02:16:38;2.70;;;1.80;;
8777;SDS011;4425;50.872;4.712;2022-12-29T02:19:27;4.20;;;1.70;;
8777;SDS011;4425;50.872;4.712;2022-12-29T02:22:18;2.53;;;1.80;;
8777;SDS011;4425;50.872;4.712;2022-12-29T02:27:54;1.63;;;1.40;;
8777;SDS011;4425;50.872;4.712;2022-12-29T02:30:49;2.00;;;1.40;;
8777;SDS011;4425;50.872;4.712;2022-12-29T02:33:30;3.30;;;1.40;;
8777;SDS011;4425;50.872;4.712;2022-12-29T02:36:11;2.97;;;1.40;;
8777;SDS011;4425;50.872;4.712;2022-12-29T02:38:49;1.20;;;1.10;;
8777;SDS011;4425;50.872;4.712;2022-12-29T02:41:23;1.43;;;1.33;;
8777;SDS011;4425;50.872;4.712;2022-12-29T02:44:01;1.80;;;1.30;;
8777;SDS011;4425;50.872;4.712;2022-12-29T02:46:36;1.97;;;1.50;;
8777;SDS011;4425;50.872;4.712;2022-12-29T02:49:10;2.00;;;1.50;;
8777;SDS011;4425;50.872;4.712;2022-12-29T02:51:43;1.20;;;1.20;;
8777;SDS011;4425;50.872;4.712;2022-12-29T02:54:17;1.87;;;1.37;;
8777;SDS011;4425;50.872;4.712;2022-12-29T02:57:02;1.97;;;1.40;;
8777;SDS011;4425;50.872;4.712;2022-12-29T02:59:31;1.57;;;1.40;;
8777;SDS011;4425;50.872;4.712;2022-12-29T03:02:04;1.30;;;1.20;;
8777;SDS011;4425;50.872;4.712;2022-12-29T03:04:53;1.87;;;1.50;;
8777;SDS011;4425;50.872;4.712;2022-12-29T03:07:42;1.30;;;1.20;;
8777;SDS011;4425;50.872;4.712;2022-12-29T03:10:17;0.93;;;0.90;;
8777;SDS011;4425;50.872;4.712;2022-12-29T03:13:01;1.93;;;0.97;;
8777;SDS011;4425;50.872;4.712;2022-12-29T03:15:50;0.80;;;0.80;;
8777;SDS011;4425;50.872;4.712;2022-12-29T03:18:32;1.60;;;0.90;;
8777;SDS011;4425;50.872;4.712;2022-12-29T03:21:06;1.23;;;1.00;;
8777;SDS011;4425;50.872;4.712;2022-12-29T03:23:38;0.80;;;0.77;;
8777;SDS011;4425;50.872;4.712;2022-12-29T03:26:08;0.87;;;0.83;;
8777;SDS011;4425;50.872;4.712;2022-12-29T03:28:40;1.03;;;0.90;;
8777;SDS011;4425;50.872;4.712;2022-12-29T03:31:12;2.07;;;1.10;;
8777;SDS011;4425;50.872;4.712;2022-12-29T03:33:43;0.77;;;0.77;;
8777;SDS011;4425;50.872;4.712;2022-12-29T03:36:14;1.13;;;0.70;;
8777;SDS011;4425;50.872;4.712;2022-12-29T03:38:45;1.87;;;0.80;;
8777;SDS011;4425;50.872;4.712;2022-12-29T03:41:17;1.37;;;0.77;;
8777;SDS011;4425;50.872;4.712;2022-12-29T03:43:48;1.47;;;1.00;;
8777;SDS011;4425;50.872;4.712;2022-12-29T03:46:15;1.73;;;0.80;;
8777;SDS011;4425;50.872;4.712;2022-12-29T03:48:44;1.07;;;0.80;;
8777;SDS011;4425;50.872;4.712;2022-12-29T03:51:11;3.23;;;1.23;;
8777;SDS011;4425;50.872;4.712;2022-12-29T03:53:38;2.67;;;1.13;;
8777;SDS011;4425;50.872;4.712;2022-12-29T03:56:05;4.20;;;1.57;;
8777;SDS011;4425;50.872;4.712;2022-12-29T03:58:32;3.07;;;1.43;;
8777;SDS011;4425;50.872;4.712;2022-12-29T04:00:59;3.97;;;1.50;;
8777;SDS011;4425;50.872;4.712;2022-12-29T04:03:27;2.60;;;1.30;;
8777;SDS011;4425;50.872;4.712;2022-12-29T04:05:56;2.87;;;1.60;;
8777;SDS011;4425;50.872;4.712;2022-12-29T04:08:23;1.33;;;1.23;;
8777;SDS011;4425;50.872;4.712;2022-12-29T04:10:50;5.47;;;1.80;;
8777;SDS011;4425;50.872;4.712;2022-12-29T04:13:17;3.37;;;1.40;;
8777;SDS011;4425;50.872;4.712;2022-12-29T04:15:44;3.93;;;1.60;;
8777;SDS011;4425;50.872;4.712;2022-12-29T04:18:11;3.40;;;1.60;;
8777;SDS011;4425;50.872;4.712;2022-12-29T04:20:38;2.73;;;1.40;;
8777;SDS011;4425;50.872;4.712;2022-12-29T04:23:33;3.37;;;1.40;;
8777;SDS011;4425;50.872;4.712;2022-12-29T04:26:02;4.90;;;1.50;;
8777;SDS011;4425;50.872;4.712;2022-12-29T04:28:31;3.13;;;1.30;;
8777;SDS011;4425;50.872;4.712;2022-12-29T04:30:59;3.40;;;1.20;;
8777;SDS011;4425;50.872;4.712;2022-12-29T04:33:26;3.13;;;1.40;;
8777;SDS011;4425;50.872;4.712;2022-12-29T04:35:53;3.07;;;1.40;;
8777;SDS011;4425;50.872;4.712;2022-12-29T04:38:20;5.07;;;1.43;;
8777;SDS011;4425;50.872;4.712;2022-12-29T04:40:50;1.87;;;1.20;;
8777;SDS011;4425;50.872;4.712;2022-12-29T04:43:17;3.20;;;1.50;;
8777;SDS011;4425;50.872;4.712;2022-12-29T04:45:46;3.63;;;1.30;;
8777;SDS011;4425;50.872;4.712;2022-12-29T04:48:13;3.67;;;1.20;;
8777;SDS011;4425;50.872;4.712;2022-12-29T04:50:41;1.63;;;1.10;;
8777;SDS011;4425;50.872;4.712;2022-12-29T04:53:08;4.70;;;1.53;;
8777;SDS011;4425;50.872;4.712;2022-12-29T04:55:35;4.43;;;1.37;;
8777;SDS011;4425;50.872;4.712;2022-12-29T04:58:03;3.03;;;1.47;;
8777;SDS011;4425;50.872;4.712;2022-12-29T05:00:31;3.77;;;1.60;;
8777;SDS011;4425;50.872;4.712;2022-12-29T05:02:58;3.63;;;1.60;;
8777;SDS011;4425;50.872;4.712;2022-12-29T05:05:27;3.63;;;1.33;;
8777;SDS011;4425;50.872;4.712;2022-12-29T05:07:54;3.07;;;1.50;;
8777;SDS011;4425;50.872;4.712;2022-12-29T05:10:22;3.33;;;1.50;;
8777;SDS011;4425;50.872;4.712;2022-12-29T05:12:49;3.30;;;1.30;;
8777;SDS011;4425;50.872;4.712;2022-12-29T05:15:17;3.57;;;1.67;;
8777;SDS011;4425;50.872;4.712;2022-12-29T05:17:44;6.03;;;1.93;;
8777;SDS011;4425;50.872;4.712;2022-12-29T05:20:11;4.23;;;1.73;;
8777;SDS011;4425;50.872;4.712;2022-12-29T05:22:39;4.03;;;1.50;;
8777;SDS011;4425;50.872;4.712;2022-12-29T05:25:07;2.97;;;1.40;;
8777;SDS011;4425;50.872;4.712;2022-12-29T05:27:35;5.60;;;1.83;;
8777;SDS011;4425;50.872;4.712;2022-12-29T05:30:02;4.93;;;1.70;;
8777;SDS011;4425;50.872;4.712;2022-12-29T05:32:34;3.53;;;1.73;;
8777;SDS011;4425;50.872;4.712;2022-12-29T05:35:01;4.90;;;1.80;;
8777;SDS011;4425;50.872;4.712;2022-12-29T05:37:28;4.87;;;1.70;;
8777;SDS011;4425;50.872;4.712;2022-12-29T05:39:55;4.00;;;1.80;;
8777;SDS011;4425;50.872;4.712;2022-12-29T05:42:22;5.30;;;1.57;;
8777;SDS011;4425;50.872;4.712;2022-12-29T05:44:49;4.70;;;1.60;;
8777;SDS011;4425;50.872;4.712;2022-12-29T05:47:18;6.03;;;1.73;;
8777;SDS011;4425;50.872;4.712;2022-12-29T05:49:47;8.53;;;1.80;;
8777;SDS011;4425;50.872;4.712;2022-12-29T05:52:14;5.80;;;1.93;;
8777;SDS011;4425;50.872;4.712;2022-12-29T05:54:41;4.37;;;1.60;;
8777;SDS011;4425;50.872;4.712;2022-12-29T05:57:08;5.10;;;2.00;;
8777;SDS011;4425;50.872;4.712;2022-12-29T05:59:35;4.23;;;1.60;;
8777;SDS011;4425;50.872;4.712;2022-12-29T06:02:02;4.10;;;1.80;;
8777;SDS011;4425;50.872;4.712;2022-12-29T06:04:29;6.57;;;2.30;;
8777;SDS011;4425;50.872;4.712;2022-12-29T06:07:02;5.33;;;1.83;;
8777;SDS011;4425;50.872;4.712;2022-12-29T06:09:29;5.53;;;1.70;;
8777;SDS011;4425;50.872;4.712;2022-12-29T06:11:56;5.87;;;2.13;;
8777;SDS011;4425;50.872;4.712;2022-12-29T06:14:23;7.37;;;2.23;;
8777;SDS011;4425;50.872;4.712;2022-12-29T06:16:50;5.60;;;1.80;;
8777;SDS011;4425;50.872;4.712;2022-12-29T06:19:18;9.07;;;2.50;;
8777;SDS011;4425;50.872;4.712;2022-12-29T06:21:45;5.73;;;2.43;;
8777;SDS011;4425;50.872;4.712;2022-12-29T06:24:13;6.37;;;2.20;;
8777;SDS011;4425;50.872;4.712;2022-12-29T06:26:40;5.67;;;2.30;;
8777;SDS011;4425;50.872;4.712;2022-12-29T06:29:07;6.60;;;1.87;;
8777;SDS011;4425;50.872;4.712;2022-12-29T06:31:34;7.90;;;2.20;;
8777;SDS011;4425;50.872;4.712;2022-12-29T06:34:01;7.83;;;1.87;;
8777;SDS011;4425;50.872;4.712;2022-12-29T06:36:29;5.50;;;1.70;;
8777;SDS011;4425;50.872;4.712;2022-12-29T06:38:55;8.17;;;2.03;;
8777;SDS011;4425;50.872;4.712;2022-12-29T06:41:24;5.23;;;2.00;;
8777;SDS011;4425;50.872;4.712;2022-12-29T06:43:51;3.93;;;1.87;;
8777;SDS011;4425;50.872;4.712;2022-12-29T06:46:18;5.13;;;2.00;;
8777;SDS011;4425;50.872;4.712;2022-12-29T06:48:45;9.60;;;2.27;;
8777;SDS011;4425;50.872;4.712;2022-12-29T06:51:12;5.87;;;2.10;;
8777;SDS011;4425;50.872;4.712;2022-12-29T06:53:40;5.83;;;1.90;;
8777;SDS011;4425;50.872;4.712;2022-12-29T06:56:07;9.37;;;2.50;;
8777;SDS011;4425;50.872;4.712;2022-12-29T06:58:35;7.33;;;1.97;;
8777;SDS011;4425;50.872;4.712;2022-12-29T07:01:03;7.57;;;2.70;;
8777;SDS011;4425;50.872;4.712;2022-12-29T07:03:31;6.27;;;1.80;;
8777;SDS011;4425;50.872;4.712;2022-12-29T07:05:59;11.03;;;2.27;;
8777;SDS011;4425;50.872;4.712;2022-12-29T07:08:26;6.17;;;2.33;;
8777;SDS011;4425;50.872;4.712;2022-12-29T07:10:54;8.00;;;2.30;;
8777;SDS011;4425;50.872;4.712;2022-12-29T07:13:21;8.47;;;2.37;;
8777;SDS011;4425;50.872;4.712;2022-12-29T07:15:50;7.50;;;2.63;;
8777;SDS011;4425;50.872;4.712;2022-12-29T07:18:18;5.97;;;2.53;;
8777;SDS011;4425;50.872;4.712;2022-12-29T07:20:45;8.10;;;2.37;;
8777;SDS011;4425;50.872;4.712;2022-12-29T07:23:12;7.17;;;2.57;;
8777;SDS011;4425;50.872;4.712;2022-12-29T07:25:39;8.30;;;2.43;;
8777;SDS011;4425;50.872;4.712;2022-12-29T07:28:06;9.00;;;2.33;;
8777;SDS011;4425;50.872;4.712;2022-12-29T07:30:35;8.00;;;2.03;;
8777;SDS011;4425;50.872;4.712;2022-12-29T07:33:04;4.13;;;2.00;;
8777;SDS011;4425;50.872;4.712;2022-12-29T07:35:32;10.43;;;2.40;;
8777;SDS011;4425;50.872;4.712;2022-12-29T07:38:00;6.77;;;2.30;;
8777;SDS011;4425;50.872;4.712;2022-12-29T07:40:27;6.67;;;2.23;;
8777;SDS011;4425;50.872;4.712;2022-12-29T07:42:54;11.33;;;2.60;;
8777;SDS011;4425;50.872;4.712;2022-12-29T07:45:21;8.83;;;2.50;;
8777;SDS011;4425;50.872;4.712;2022-12-29T07:47:50;6.23;;;2.00;;
8777;SDS011;4425;50.872;4.712;2022-12-29T07:50:19;6.23;;;2.23;;
8777;SDS011;4425;50.872;4.712;2022-12-29T07:52:45;8.37;;;2.67;;
8777;SDS011;4425;50.872;4.712;2022-12-29T07:55:13;5.43;;;2.00;;
8777;SDS011;4425;50.872;4.712;2022-12-29T07:57:40;8.17;;;2.23;;
8777;SDS011;4425;50.872;4.712;2022-12-29T08:00:08;8.20;;;2.57;;
8777;SDS011;4425;50.872;4.712;2022-12-29T08:02:37;9.30;;;2.83;;
8777;SDS011;4425;50.872;4.712;2022-12-29T08:05:05;8.03;;;2.37;;
8777;SDS011;4425;50.872;4.712;2022-12-29T08:07:34;7.77;;;2.30;;
8777;SDS011;4425;50.872;4.712;2022-12-29T08:10:01;6.73;;;2.23;;
8777;SDS011;4425;50.872;4.712;2022-12-29T08:12:41;9.20;;;2.40;;
8777;SDS011;4425;50.872;4.712;2022-12-29T08:15:12;8.37;;;2.63;;
8777;SDS011;4425;50.872;4.712;2022-12-29T08:17:47;9.00;;;2.70;;
8777;SDS011;4425;50.872;4.712;2022-12-29T08:20:16;10.57;;;2.40;;
8777;SDS011;4425;50.872;4.712;2022-12-29T08:22:49;8.97;;;2.77;;
8777;SDS011;4425;50.872;4.712;2022-12-29T08:25:18;10.03;;;2.90;;
8777;SDS011;4425;50.872;4.712;2022-12-29T08:27:46;9.03;;;2.37;;
8777;SDS011;4425;50.872;4.712;2022-12-29T08:30:25;11.67;;;2.83;;
8777;SDS011;4425;50.872;4.712;2022-12-29T08:32:59;7.83;;;2.47;;
8777;SDS011;4425;50.872;4.712;2022-12-29T08:35:40;9.97;;;2.53;;
8777;SDS011;4425;50.872;4.712;2022-12-29T08:38:12;8.03;;;2.43;;
8777;SDS011;4425;50.872;4.712;2022-12-29T08:40:48;8.83;;;2.60;;
8777;SDS011;4425;50.872;4.712;2022-12-29T08:43:30;9.80;;;2.37;;
8777;SDS011;4425;50.872;4.712;2022-12-29T08:46:05;8.93;;;2.17;;
8777;SDS011;4425;50.872;4.712;2022-12-29T08:54:19;5.30;;;2.00;;
8777;SDS011;4425;50.872;4.712;2022-12-29T08:56:47;8.77;;;2.50;;
8777;SDS011;4425;50.872;4.712;2022-12-29T08:59:27;9.80;;;2.33;;
8777;SDS011;4425;50.872;4.712;2022-12-29T09:02:05;8.87;;;2.67;;
8777;SDS011;4425;50.872;4.712;2022-12-29T09:04:43;10.17;;;2.73;;
8777;SDS011;4425;50.872;4.712;2022-12-29T09:07:13;7.17;;;2.50;;
8777;SDS011;4425;50.872;4.712;2022-12-29T09:09:44;4.77;;;2.40;;
8777;SDS011;4425;50.872;4.712;2022-12-29T09:12:13;8.53;;;2.30;;
8777;SDS011;4425;50.872;4.712;2022-12-29T09:14:40;8.27;;;3.50;;
8777;SDS011;4425;50.872;4.712;2022-12-29T09:17:30;7.07;;;2.47;;
8777;SDS011;4425;50.872;4.712;2022-12-29T09:20:09;10.60;;;2.80;;
8777;SDS011;4425;50.872;4.712;2022-12-29T09:22:39;11.63;;;2.63;;
8777;SDS011;4425;50.872;4.712;2022-12-29T09:25:08;7.37;;;2.93;;
8777;SDS011;4425;50.872;4.712;2022-12-29T09:27:37;8.93;;;2.70;;
8777;SDS011;4425;50.872;4.712;2022-12-29T09:30:07;9.17;;;2.50;;
8777;SDS011;4425;50.872;4.712;2022-12-29T09:32:37;5.40;;;2.30;;
8777;SDS011;4425;50.872;4.712;2022-12-29T09:35:04;10.77;;;2.70;;
8777;SDS011;4425;50.872;4.712;2022-12-29T09:37:32;7.80;;;2.57;;
8777;SDS011;4425;50.872;4.712;2022-12-29T09:45:50;9.40;;;2.80;;
8777;SDS011;4425;50.872;4.712;2022-12-29T09:48:27;11.60;;;3.13;;
8777;SDS011;4425;50.872;4.712;2022-12-29T09:50:59;10.03;;;2.53;;
8777;SDS011;4425;50.872;4.712;2022-12-29T09:53:31;8.73;;;2.53;;
8777;SDS011;4425;50.872;4.712;2022-12-29T09:56:07;10.57;;;2.83;;
8777;SDS011;4425;50.872;4.712;2022-12-29T09:58:44;7.77;;;2.80;;
8777;SDS011;4425;50.872;4.712;2022-12-29T10:01:22;8.37;;;2.87;;
8777;SDS011;4425;50.872;4.712;2022-12-29T10:03:55;10.40;;;2.90;;
8777;SDS011;4425;50.872;4.712;2022-12-29T10:06:25;8.97;;;2.73;;
8777;SDS011;4425;50.872;4.712;2022-12-29T10:09:01;8.60;;;2.67;;
8777;SDS011;4425;50.872;4.712;2022-12-29T10:11:38;13.60;;;2.73;;
8777;SDS011;4425;50.872;4.712;2022-12-29T10:14:25;10.70;;;2.97;;
8777;SDS011;4425;50.872;4.712;2022-12-29T10:17:16;8.50;;;2.60;;
8777;SDS011;4425;50.872;4.712;2022-12-29T10:20:02;13.80;;;3.10;;
8777;SDS011;4425;50.872;4.712;2022-12-29T10:22:46;12.13;;;2.47;;
8777;SDS011;4425;50.872;4.712;2022-12-29T10:25:37;7.87;;;2.53;;
8777;SDS011;4425;50.872;4.712;2022-12-29T10:28:10;6.43;;;2.30;;
8777;SDS011;4425;50.872;4.712;2022-12-29T10:30:45;12.03;;;2.93;;
8777;SDS011;4425;50.872;4.712;2022-12-29T10:35:48;4.53;;;2.33;;
8777;SDS011;4425;50.872;4.712;2022-12-29T10:38:19;9.93;;;2.90;;
8777;SDS011;4425;50.872;4.712;2022-12-29T10:40:53;7.90;;;2.50;;
8777;SDS011;4425;50.872;4.712;2022-12-29T10:43:27;14.60;;;3.00;;
8777;SDS011;4425;50.872;4.712;2022-12-29T10:45:57;9.70;;;2.60;;
8777;SDS011;4425;50.872;4.712;2022-12-29T10:48:30;9.47;;;2.80;;
8777;SDS011;4425;50.872;4.712;2022-12-29T10:51:02;9.03;;;2.67;;
8777;SDS011;4425;50.872;4.712;2022-12-29T10:53:35;9.23;;;2.60;;
8777;SDS011;4425;50.872;4.712;2022-12-29T10:56:15;14.17;;;3.03;;
8777;SDS011;4425;50.872;4.712;2022-12-29T10:58:51;7.50;;;2.60;;
8777;SDS011;4425;50.872;4.712;2022-12-29T11:01:25;10.23;;;2.90;;
8777;SDS011;4425;50.872;4.712;2022-12-29T11:03:59;9.83;;;2.60;;
8777;SDS011;4425;50.872;4.712;2022-12-29T11:06:30;9.07;;;2.87;;
8777;SDS011;4425;50.872;4.712;2022-12-29T11:09:01;11.30;;;2.60;;
8777;SDS011;4425;50.872;4.712;2022-12-29T11:11:35;9.17;;;3.00;;
8777;SDS011;4425;50.872;4.712;2022-12-29T11:14:09;8.77;;;2.53;;
8777;SDS011;4425;50.872;4.712;2022-12-29T11:16:41;10.60;;;2.53;;
8777;SDS011;4425;50.872;4.712;2022-12-29T11:21:56;11.37;;;3.07;;
8777;SDS011;4425;50.872;4.712;2022-12-29T11:24:43;8.27;;;2.37;;
8777;SDS011;4425;50.872;4.712;2022-12-29T11:27:13;11.63;;;3.10;;
8777;SDS011;4425;50.872;4.712;2022-12-29T11:29:43;8.90;;;2.77;;
8777;SDS011;4425;50.872;4.712;2022-12-29T11:32:12;11.83;;;3.27;;
8777;SDS011;4425;50.872;4.712;2022-12-29T11:34:52;11.57;;;2.70;;
8777;SDS011;4425;50.872;4.712;2022-12-29T11:37:22;7.73;;;2.33;;
8777;SDS011;4425;50.872;4.712;2022-12-29T11:39:57;11.63;;;2.90;;
8777;SDS011;4425;50.872;4.712;2022-12-29T11:42:32;9.93;;;2.87;;
8777;SDS011;4425;50.872;4.712;2022-12-29T11:45:06;11.23;;;3.03;;
8777;SDS011;4425;50.872;4.712;2022-12-29T11:47:41;12.97;;;3.40;;
8777;SDS011;4425;50.872;4.712;2022-12-29T11:50:16;6.40;;;2.50;;
8777;SDS011;4425;50.872;4.712;2022-12-29T11:52:46;15.90;;;3.10;;
8777;SDS011;4425;50.872;4.712;2022-12-29T11:55:25;9.20;;;2.77;;
8777;SDS011;4425;50.872;4.712;2022-12-29T11:57:54;6.97;;;2.60;;
8777;SDS011;4425;50.872;4.712;2022-12-29T12:00:38;10.53;;;2.40;;
8777;SDS011;4425;50.872;4.712;2022-12-29T12:03:07;9.33;;;2.50;;
8777;SDS011;4425;50.872;4.712;2022-12-29T12:05:43;10.07;;;2.57;;
8777;SDS011;4425;50.872;4.712;2022-12-29T12:08:18;11.37;;;2.97;;
8777;SDS011;4425;50.872;4.712;2022-12-29T12:10:50;12.13;;;2.87;;
8777;SDS011;4425;50.872;4.712;2022-12-29T12:13:25;7.83;;;2.60;;
8777;SDS011;4425;50.872;4.712;2022-12-29T12:15:59;8.07;;;2.63;;
8777;SDS011;4425;50.872;4.712;2022-12-29T12:18:35;10.63;;;2.50;;
8777;SDS011;4425;50.872;4.712;2022-12-29T12:21:09;9.27;;;2.87;;
8777;SDS011;4425;50.872;4.712;2022-12-29T12:23:57;7.77;;;2.40;;
8777;SDS011;4425;50.872;4.712;2022-12-29T12:26:40;8.00;;;2.73;;
8777;SDS011;4425;50.872;4.712;2022-12-29T12:29:16;9.83;;;2.47;;
8777;SDS011;4425;50.872;4.712;2022-12-29T12:31:53;8.83;;;2.70;;
8777;SDS011;4425;50.872;4.712;2022-12-29T12:34:24;10.33;;;2.70;;
8777;SDS011;4425;50.872;4.712;2022-12-29T12:36:59;9.77;;;2.60;;
8777;SDS011;4425;50.872;4.712;2022-12-29T12:39:48;9.67;;;2.50;;
8777;SDS011;4425;50.872;4.712;2022-12-29T12:42:29;9.93;;;2.67;;
8777;SDS011;4425;50.872;4.712;2022-12-29T12:48:05;6.70;;;2.80;;
8777;SDS011;4425;50.872;4.712;2022-12-29T12:50:46;7.23;;;2.67;;
8777;SDS011;4425;50.872;4.712;2022-12-29T12:56:15;7.47;;;2.37;;
8777;SDS011;4425;50.872;4.712;2022-12-29T12:58:53;6.03;;;2.50;;
8777;SDS011;4425;50.872;4.712;2022-12-29T13:01:33;6.07;;;2.50;;
8777;SDS011;4425;50.872;4.712;2022-12-29T13:07:19;8.47;;;2.40;;
8777;SDS011;4425;50.872;4.712;2022-12-29T13:10:12;8.37;;;2.43;;
8777;SDS011;4425;50.872;4.712;2022-12-29T13:12:55;10.97;;;2.87;;
8777;SDS011;4425;50.872;4.712;2022-12-29T13:15:40;7.67;;;2.83;;
8777;SDS011;4425;50.872;4.712;2022-12-29T13:18:21;10.97;;;2.77;;
8777;SDS011;4425;50.872;4.712;2022-12-29T13:20:56;16.53;;;2.77;;
8777;SDS011;4425;50.872;4.712;2022-12-29T13:23:34;6.73;;;2.57;;
8777;SDS011;4425;50.872;4.712;2022-12-29T13:26:08;13.30;;;3.03;;
8777;SDS011;4425;50.872;4.712;2022-12-29T13:28:43;9.33;;;2.90;;
8777;SDS011;4425;50.872;4.712;2022-12-29T13:31:24;6.03;;;2.20;;
8777;SDS011;4425;50.872;4.712;2022-12-29T13:34:00;15.73;;;3.10;;
8777;SDS011;4425;50.872;4.712;2022-12-29T13:36:40;9.60;;;2.80;;
8777;SDS011;4425;50.872;4.712;2022-12-29T13:42:08;9.73;;;2.87;;
8777;SDS011;4425;50.872;4.712;2022-12-29T13:44:41;9.80;;;2.73;;
8777;SDS011;4425;50.872;4.712;2022-12-29T13:47:16;8.70;;;3.00;;
8777;SDS011;4425;50.872;4.712;2022-12-29T13:49:48;6.27;;;2.57;;
8777;SDS011;4425;50.872;4.712;2022-12-29T13:52:18;10.87;;;3.20;;
8777;SDS011;4425;50.872;4.712;2022-12-29T13:55:00;14.63;;;3.30;;
8777;SDS011;4425;50.872;4.712;2022-12-29T13:57:39;9.90;;;2.73;;
8777;SDS011;4425;50.872;4.712;2022-12-29T14:00:28;11.90;;;3.13;;
8777;SDS011;4425;50.872;4.712;2022-12-29T14:03:10;8.37;;;2.63;;
8777;SDS011;4425;50.872;4.712;2022-12-29T14:06:12;8.83;;;3.57;;
8777;SDS011;4425;50.872;4.712;2022-12-29T14:08:52;7.07;;;2.70;;
8777;SDS011;4425;50.872;4.712;2022-12-29T14:11:29;9.47;;;2.80;;
8777;SDS011;4425;50.872;4.712;2022-12-29T14:13:59;10.17;;;3.40;;
8777;SDS011;4425;50.872;4.712;2022-12-29T14:16:43;5.80;;;2.40;;
8777;SDS011;4425;50.872;4.712;2022-12-29T14:19:18;15.07;;;3.03;;
8777;SDS011;4425;50.872;4.712;2022-12-29T14:21:52;11.73;;;3.40;;
8777;SDS011;4425;50.872;4.712;2022-12-29T14:24:38;12.17;;;3.20;;
8777;SDS011;4425;50.872;4.712;2022-12-29T14:33:17;17.20;;;3.97;;
8777;SDS011;4425;50.872;4.712;2022-12-29T14:35:46;12.43;;;3.33;;
8777;SDS011;4425;50.872;4.712;2022-12-29T14:38:21;13.83;;;3.27;;
8777;SDS011;4425;50.872;4.712;2022-12-29T14:43:54;12.27;;;3.57;;
8777;SDS011;4425;50.872;4.712;2022-12-29T14:46:25;14.20;;;3.97;;
8777;SDS011;4425;50.872;4.712;2022-12-29T14:49:08;16.33;;;3.93;;
8777;SDS011;4425;50.872;4.712;2022-12-29T14:51:44;12.17;;;3.60;;
8777;SDS011;4425;50.872;4.712;2022-12-29T14:57:27;11.40;;;3.43;;
8777;SDS011;4425;50.872;4.712;2022-12-29T15:00:05;19.73;;;3.80;;
8777;SDS011;4425;50.872;4.712;2022-12-29T15:02:54;13.93;;;2.93;;
8777;SDS011;4425;50.872;4.712;2022-12-29T15:05:32;13.23;;;3.30;;
8777;SDS011;4425;50.872;4.712;2022-12-29T15:08:03;15.10;;;3.30;;
8777;SDS011;4425;50.872;4.712;2022-12-29T15:10:33;11.40;;;3.20;;
8777;SDS011;4425;50.872;4.712;2022-12-29T15:13:04;14.20;;;3.70;;
8777;SDS011;4425;50.872;4.712;2022-12-29T15:15:42;12.93;;;3.30;;
8777;SDS011;4425;50.872;4.712;2022-12-29T15:18:13;12.40;;;3.50;;
8777;SDS011;4425;50.872;4.712;2022-12-29T15:20:49;14.43;;;3.60;;
8777;SDS011;4425;50.872;4.712;2022-12-29T15:23:20;8.80;;;2.73;;
8777;SDS011;4425;50.872;4.712;2022-12-29T15:25:50;10.07;;;3.00;;
8777;SDS011;4425;50.872;4.712;2022-12-29T15:28:21;12.47;;;3.17;;
8777;SDS011;4425;50.872;4.712;2022-12-29T15:30:54;12.20;;;3.20;;
8777;SDS011;4425;50.872;4.712;2022-12-29T15:33:38;8.43;;;2.60;;
8777;SDS011;4425;50.872;4.712;2022-12-29T15:36:09;5.87;;;2.47;;
8777;SDS011;4425;50.872;4.712;2022-12-29T15:38:42;7.23;;;1.97;;
8777;SDS011;4425;50.872;4.712;2022-12-29T15:41:15;5.77;;;2.10;;
8777;SDS011;4425;50.872;4.712;2022-12-29T15:44:20;4.07;;;2.00;;
8777;SDS011;4425;50.872;4.712;2022-12-29T15:46:55;2.43;;;1.60;;
8777;SDS011;4425;50.872;4.712;2022-12-29T15:49:22;4.07;;;2.17;;
8777;SDS011;4425;50.872;4.712;2022-12-29T15:51:51;4.20;;;1.83;;
8777;SDS011;4425;50.872;4.712;2022-12-29T15:54:19;3.03;;;1.90;;
8777;SDS011;4425;50.872;4.712;2022-12-29T15:56:48;4.77;;;1.70;;
8777;SDS011;4425;50.872;4.712;2022-12-29T15:59:22;4.83;;;1.97;;
8777;SDS011;4425;50.872;4.712;2022-12-29T16:01:52;5.83;;;2.10;;
8777;SDS011;4425;50.872;4.712;2022-12-29T16:04:20;6.30;;;2.10;;
8777;SDS011;4425;50.872;4.712;2022-12-29T16:06:54;5.37;;;2.47;;
8777;SDS011;4425;50.872;4.712;2022-12-29T16:09:29;6.63;;;2.20;;
8777;SDS011;4425;50.872;4.712;2022-12-29T16:11:58;7.53;;;2.40;;
8777;SDS011;4425;50.872;4.712;2022-12-29T16:14:30;5.13;;;2.10;;
8777;SDS011;4425;50.872;4.712;2022-12-29T16:17:02;5.17;;;2.57;;
8777;SDS011;4425;50.872;4.712;2022-12-29T16:19:32;8.47;;;2.60;;
8777;SDS011;4425;50.872;4.712;2022-12-29T16:22:03;9.70;;;2.80;;
8777;SDS011;4425;50.872;4.712;2022-12-29T16:24:45;10.03;;;2.60;;
8777;SDS011;4425;50.872;4.712;2022-12-29T16:27:19;9.37;;;2.60;;
8777;SDS011;4425;50.872;4.712;2022-12-29T16:29:48;8.83;;;2.97;;
8777;SDS011;4425;50.872;4.712;2022-12-29T16:32:28;5.43;;;2.60;;